sensor_id;sensor_type;location;lat;lon;timestamp;P1;durP1;ratioP1;P2;durP2;ratioP2
69081;SDS011;69029;51.986;5.760;2023-06-04T00:00:24;3.22;;;1.10;;
69081;SDS011;69029;51.986;5.760;2023-06-04T00:02:50;3.47;;;1.13;;
69081;SDS011;69029;51.986;5.760;2023-06-04T00:05:16;4.68;;;0.95;;
69081;SDS011;69029;51.986;5.760;2023-06-04T00:07:41;4.15;;;1.02;;
69081;SDS011;69029;51.986;5.760;2023-06-04T00:10:07;2.38;;;0.98;;
69081;SDS011;69029;51.986;5.760;2023-06-04T00:12:33;2.60;;;1.20;;
69081;SDS011;69029;51.986;5.760;2023-06-04T00:14:59;3.78;;;1.10;;
69081;SDS011;69029;51.986;5.760;2023-06-04T00:17:25;4.28;;;1.08;;
69081;SDS011;69029;51.986;5.760;2023-06-04T00:19:50;6.18;;;1.13;;
69081;SDS011;69029;51.986;5.760;2023-06-04T00:22:16;5.25;;;1.25;;
69081;SDS011;69029;51.986;5.760;2023-06-04T00:24:41;2.83;;;1.20;;
69081;SDS011;69029;51.986;5.760;2023-06-04T00:27:07;5.00;;;1.13;;
69081;SDS011;69029;51.986;5.760;2023-06-04T00:29:34;6.35;;;1.27;;
69081;SDS011;69029;51.986;5.760;2023-06-04T00:31:59;4.47;;;1.20;;
69081;SDS011;69029;51.986;5.760;2023-06-04T00:34:25;3.30;;;1.05;;
69081;SDS011;69029;51.986;5.760;2023-06-04T00:36:50;2.17;;;1.38;;
69081;SDS011;69029;51.986;5.760;2023-06-04T00:39:19;5.93;;;1.30;;
69081;SDS011;69029;51.986;5.760;2023-06-04T00:41:44;4.05;;;1.17;;
69081;SDS011;69029;51.986;5.760;2023-06-04T00:44:11;2.75;;;1.10;;
69081;SDS011;69029;51.986;5.760;2023-06-04T00:46:36;4.95;;;1.20;;
69081;SDS011;69029;51.986;5.760;2023-06-04T00:49:04;3.50;;;1.30;;
69081;SDS011;69029;51.986;5.760;2023-06-04T00:51:31;3.15;;;1.10;;
69081;SDS011;69029;51.986;5.760;2023-06-04T00:53:57;4.32;;;1.10;;
69081;SDS011;69029;51.986;5.760;2023-06-04T00:56:24;7.07;;;1.40;;
69081;SDS011;69029;51.986;5.760;2023-06-04T00:58:50;1.10;;;1.00;;
69081;SDS011;69029;51.986;5.760;2023-06-04T01:03:51;2.03;;;1.25;;
69081;SDS011;69029;51.986;5.760;2023-06-04T01:09:03;3.65;;;1.30;;
69081;SDS011;69029;51.986;5.760;2023-06-04T01:11:30;1.45;;;1.10;;
69081;SDS011;69029;51.986;5.760;2023-06-04T01:14:00;1.42;;;1.10;;
69081;SDS011;69029;51.986;5.760;2023-06-04T01:16:27;1.90;;;1.00;;
69081;SDS011;69029;51.986;5.760;2023-06-04T01:18:58;4.10;;;1.27;;
69081;SDS011;69029;51.986;5.760;2023-06-04T01:21:29;1.60;;;1.00;;
69081;SDS011;69029;51.986;5.760;2023-06-04T01:24:00;2.67;;;1.33;;
69081;SDS011;69029;51.986;5.760;2023-06-04T01:26:30;2.28;;;1.17;;
69081;SDS011;69029;51.986;5.760;2023-06-04T01:28:56;1.55;;;1.23;;
69081;SDS011;69029;51.986;5.760;2023-06-04T01:31:23;3.47;;;1.23;;
69081;SDS011;69029;51.986;5.760;2023-06-04T01:33:51;4.32;;;1.45;;
69081;SDS011;69029;51.986;5.760;2023-06-04T01:36:18;4.95;;;1.25;;
69081;SDS011;69029;51.986;5.760;2023-06-04T01:38:44;3.88;;;1.23;;
69081;SDS011;69029;51.986;5.760;2023-06-04T01:41:10;4.78;;;1.30;;
69081;SDS011;69029;51.986;5.760;2023-06-04T01:43:36;3.33;;;1.23;;
69081;SDS011;69029;51.986;5.760;2023-06-04T01:46:01;2.28;;;1.20;;
69081;SDS011;69029;51.986;5.760;2023-06-04T01:48:28;2.60;;;1.25;;
69081;SDS011;69029;51.986;5.760;2023-06-04T01:50:54;2.45;;;1.45;;
69081;SDS011;69029;51.986;5.760;2023-06-04T01:53:20;6.68;;;1.27;;
69081;SDS011;69029;51.986;5.760;2023-06-04T01:55:46;2.53;;;1.27;;
69081;SDS011;69029;51.986;5.760;2023-06-04T01:58:14;7.07;;;1.20;;
69081;SDS011;69029;51.986;5.760;2023-06-04T02:00:43;2.22;;;1.13;;
69081;SDS011;69029;51.986;5.760;2023-06-04T02:03:10;2.60;;;1.20;;
69081;SDS011;69029;51.986;5.760;2023-06-04T02:05:37;3.15;;;1.33;;
69081;SDS011;69029;51.986;5.760;2023-06-04T02:08:03;3.33;;;1.13;;
69081;SDS011;69029;51.986;5.760;2023-06-04T02:10:30;1.48;;;1.10;;
69081;SDS011;69029;51.986;5.760;2023-06-04T02:15:27;4.03;;;1.00;;
69081;SDS011;69029;51.986;5.760;2023-06-04T02:17:54;6.57;;;1.42;;
69081;SDS011;69029;51.986;5.760;2023-06-04T02:20:27;3.42;;;1.08;;
69081;SDS011;69029;51.986;5.760;2023-06-04T02:22:54;4.00;;;1.20;;
69081;SDS011;69029;51.986;5.760;2023-06-04T02:25:20;1.75;;;1.10;;
69081;SDS011;69029;51.986;5.760;2023-06-04T02:27:46;1.30;;;1.00;;
69081;SDS011;69029;51.986;5.760;2023-06-04T02:30:12;3.33;;;1.20;;
69081;SDS011;69029;51.986;5.760;2023-06-04T02:32:37;3.58;;;1.30;;
69081;SDS011;69029;51.986;5.760;2023-06-04T02:35:04;2.13;;;1.27;;
69081;SDS011;69029;51.986;5.760;2023-06-04T02:37:30;2.65;;;1.25;;
69081;SDS011;69029;51.986;5.760;2023-06-04T02:39:57;4.18;;;1.27;;
69081;SDS011;69029;51.986;5.760;2023-06-04T02:42:22;2.38;;;1.30;;
69081;SDS011;69029;51.986;5.760;2023-06-04T02:44:48;4.03;;;1.33;;
69081;SDS011;69029;51.986;5.760;2023-06-04T02:47:13;5.20;;;1.50;;
69081;SDS011;69029;51.986;5.760;2023-06-04T02:49:39;4.95;;;1.10;;
69081;SDS011;69029;51.986;5.760;2023-06-04T02:52:05;5.13;;;1.40;;
69081;SDS011;69029;51.986;5.760;2023-06-04T02:54:31;4.45;;;1.30;;
69081;SDS011;69029;51.986;5.760;2023-06-04T02:56:56;3.95;;;1.25;;
69081;SDS011;69029;51.986;5.760;2023-06-04T02:59:22;2.55;;;1.27;;
69081;SDS011;69029;51.986;5.760;2023-06-04T03:01:48;3.58;;;1.30;;
69081;SDS011;69029;51.986;5.760;2023-06-04T03:04:13;2.17;;;1.25;;
69081;SDS011;69029;51.986;5.760;2023-06-04T03:06:40;1.17;;;1.02;;
69081;SDS011;69029;51.986;5.760;2023-06-04T03:09:10;3.92;;;1.58;;
69081;SDS011;69029;51.986;5.760;2023-06-04T03:11:36;2.17;;;1.20;;
69081;SDS011;69029;51.986;5.760;2023-06-04T03:14:01;3.72;;;1.15;;
69081;SDS011;69029;51.986;5.760;2023-06-04T03:16:27;4.80;;;1.25;;
69081;SDS011;69029;51.986;5.760;2023-06-04T03:18:53;2.65;;;1.42;;
69081;SDS011;69029;51.986;5.760;2023-06-04T03:21:18;1.90;;;1.10;;
69081;SDS011;69029;51.986;5.760;2023-06-04T03:23:44;1.83;;;1.40;;
69081;SDS011;69029;51.986;5.760;2023-06-04T03:26:10;1.48;;;1.17;;
69081;SDS011;69029;51.986;5.760;2023-06-04T03:28:38;4.95;;;1.20;;
69081;SDS011;69029;51.986;5.760;2023-06-04T03:31:03;1.38;;;1.27;;
69081;SDS011;69029;51.986;5.760;2023-06-04T03:33:29;3.75;;;1.23;;
69081;SDS011;69029;51.986;5.760;2023-06-04T03:35:55;3.40;;;1.40;;
69081;SDS011;69029;51.986;5.760;2023-06-04T03:38:24;1.98;;;1.50;;
69081;SDS011;69029;51.986;5.760;2023-06-04T03:40:50;1.30;;;1.20;;
69081;SDS011;69029;51.986;5.760;2023-06-04T03:43:18;4.35;;;1.38;;
69081;SDS011;69029;51.986;5.760;2023-06-04T03:45:44;2.10;;;1.40;;
69081;SDS011;69029;51.986;5.760;2023-06-04T03:48:09;2.60;;;1.23;;
69081;SDS011;69029;51.986;5.760;2023-06-04T03:50:38;3.10;;;1.30;;
69081;SDS011;69029;51.986;5.760;2023-06-04T03:53:05;6.93;;;1.33;;
69081;SDS011;69029;51.986;5.760;2023-06-04T03:55:30;5.93;;;1.40;;
69081;SDS011;69029;51.986;5.760;2023-06-04T03:57:59;5.10;;;1.67;;
69081;SDS011;69029;51.986;5.760;2023-06-04T04:00:25;2.63;;;1.13;;
69081;SDS011;69029;51.986;5.760;2023-06-04T04:02:51;4.22;;;1.48;;
69081;SDS011;69029;51.986;5.760;2023-06-04T04:05:16;2.70;;;1.35;;
69081;SDS011;69029;51.986;5.760;2023-06-04T04:07:42;5.78;;;1.52;;
69081;SDS011;69029;51.986;5.760;2023-06-04T04:10:08;4.10;;;1.30;;
69081;SDS011;69029;51.986;5.760;2023-06-04T04:12:34;4.60;;;1.70;;
69081;SDS011;69029;51.986;5.760;2023-06-04T04:15:00;3.80;;;1.25;;
69081;SDS011;69029;51.986;5.760;2023-06-04T04:17:26;4.00;;;1.50;;
69081;SDS011;69029;51.986;5.760;2023-06-04T04:19:51;2.75;;;1.30;;
69081;SDS011;69029;51.986;5.760;2023-06-04T04:22:17;8.25;;;1.70;;
69081;SDS011;69029;51.986;5.760;2023-06-04T04:24:43;6.72;;;1.60;;
69081;SDS011;69029;51.986;5.760;2023-06-04T04:27:09;2.45;;;1.42;;
69081;SDS011;69029;51.986;5.760;2023-06-04T04:29:37;6.88;;;1.38;;
69081;SDS011;69029;51.986;5.760;2023-06-04T04:32:06;4.03;;;1.58;;
69081;SDS011;69029;51.986;5.760;2023-06-04T04:34:36;2.85;;;1.48;;
69081;SDS011;69029;51.986;5.760;2023-06-04T04:37:05;4.55;;;1.50;;
69081;SDS011;69029;51.986;5.760;2023-06-04T04:39:33;3.30;;;1.60;;
69081;SDS011;69029;51.986;5.760;2023-06-04T04:42:00;4.95;;;1.38;;
69081;SDS011;69029;51.986;5.760;2023-06-04T04:44:26;3.10;;;1.52;;
69081;SDS011;69029;51.986;5.760;2023-06-04T04:46:51;3.30;;;1.48;;
69081;SDS011;69029;51.986;5.760;2023-06-04T04:49:17;4.88;;;1.80;;
69081;SDS011;69029;51.986;5.760;2023-06-04T04:51:42;3.60;;;1.70;;
69081;SDS011;69029;51.986;5.760;2023-06-04T04:54:08;5.68;;;1.70;;
69081;SDS011;69029;51.986;5.760;2023-06-04T04:56:34;6.82;;;1.67;;
69081;SDS011;69029;51.986;5.760;2023-06-04T04:59:00;4.28;;;1.70;;
69081;SDS011;69029;51.986;5.760;2023-06-04T05:01:26;2.15;;;1.65;;
69081;SDS011;69029;51.986;5.760;2023-06-04T05:03:51;1.90;;;1.30;;
69081;SDS011;69029;51.986;5.760;2023-06-04T05:06:17;8.25;;;1.95;;
69081;SDS011;69029;51.986;5.760;2023-06-04T05:08:43;7.95;;;2.20;;
69081;SDS011;69029;51.986;5.760;2023-06-04T05:11:08;3.65;;;1.90;;
69081;SDS011;69029;51.986;5.760;2023-06-04T05:13:34;6.80;;;1.70;;
69081;SDS011;69029;51.986;5.760;2023-06-04T05:16:01;2.53;;;1.40;;
69081;SDS011;69029;51.986;5.760;2023-06-04T05:18:31;3.90;;;1.70;;
69081;SDS011;69029;51.986;5.760;2023-06-04T05:21:05;4.97;;;1.70;;
69081;SDS011;69029;51.986;5.760;2023-06-04T05:23:31;2.92;;;1.77;;
69081;SDS011;69029;51.986;5.760;2023-06-04T05:25:59;2.92;;;1.70;;
69081;SDS011;69029;51.986;5.760;2023-06-04T05:28:25;4.22;;;1.92;;
69081;SDS011;69029;51.986;5.760;2023-06-04T05:30:51;3.00;;;1.60;;
69081;SDS011;69029;51.986;5.760;2023-06-04T05:33:18;4.65;;;2.00;;
69081;SDS011;69029;51.986;5.760;2023-06-04T05:35:45;5.90;;;1.80;;
69081;SDS011;69029;51.986;5.760;2023-06-04T05:38:14;5.78;;;1.88;;
69081;SDS011;69029;51.986;5.760;2023-06-04T05:40:43;4.93;;;1.85;;
69081;SDS011;69029;51.986;5.760;2023-06-04T05:43:12;3.33;;;1.70;;
69081;SDS011;69029;51.986;5.760;2023-06-04T05:45:38;8.55;;;1.90;;
69081;SDS011;69029;51.986;5.760;2023-06-04T05:48:04;12.52;;;2.00;;
69081;SDS011;69029;51.986;5.760;2023-06-04T05:50:31;4.45;;;1.70;;
69081;SDS011;69029;51.986;5.760;2023-06-04T05:52:56;3.10;;;1.55;;
69081;SDS011;69029;51.986;5.760;2023-06-04T05:55:22;6.03;;;1.80;;
69081;SDS011;69029;51.986;5.760;2023-06-04T05:57:48;5.63;;;1.92;;
69081;SDS011;69029;51.986;5.760;2023-06-04T06:00:16;4.82;;;1.75;;
69081;SDS011;69029;51.986;5.760;2023-06-04T06:02:43;3.38;;;1.65;;
69081;SDS011;69029;51.986;5.760;2023-06-04T06:05:10;3.50;;;1.30;;
69081;SDS011;69029;51.986;5.760;2023-06-04T06:07:36;3.75;;;1.67;;
69081;SDS011;69029;51.986;5.760;2023-06-04T06:10:02;7.63;;;1.88;;
69081;SDS011;69029;51.986;5.760;2023-06-04T06:12:28;5.47;;;1.70;;
69081;SDS011;69029;51.986;5.760;2023-06-04T06:14:54;4.85;;;1.65;;
69081;SDS011;69029;51.986;5.760;2023-06-04T06:17:20;3.95;;;1.63;;
69081;SDS011;69029;51.986;5.760;2023-06-04T06:19:45;3.70;;;1.50;;
69081;SDS011;69029;51.986;5.760;2023-06-04T06:22:11;5.63;;;1.60;;
69081;SDS011;69029;51.986;5.760;2023-06-04T06:24:37;4.03;;;1.50;;
69081;SDS011;69029;51.986;5.760;2023-06-04T06:27:05;3.47;;;1.55;;
69081;SDS011;69029;51.986;5.760;2023-06-04T06:29:31;3.78;;;1.38;;
69081;SDS011;69029;51.986;5.760;2023-06-04T06:31:58;7.40;;;1.73;;
69081;SDS011;69029;51.986;5.760;2023-06-04T06:34:24;2.83;;;1.58;;
69081;SDS011;69029;51.986;5.760;2023-06-04T06:36:50;3.50;;;1.63;;
69081;SDS011;69029;51.986;5.760;2023-06-04T06:39:18;3.80;;;1.35;;
69081;SDS011;69029;51.986;5.760;2023-06-04T06:41:45;4.00;;;1.50;;
69081;SDS011;69029;51.986;5.760;2023-06-04T06:44:11;3.10;;;1.58;;
69081;SDS011;69029;51.986;5.760;2023-06-04T06:46:36;4.68;;;1.58;;
69081;SDS011;69029;51.986;5.760;2023-06-04T06:49:02;4.63;;;1.60;;
69081;SDS011;69029;51.986;5.760;2023-06-04T06:51:28;2.22;;;1.50;;
69081;SDS011;69029;51.986;5.760;2023-06-04T06:53:53;5.53;;;1.70;;
69081;SDS011;69029;51.986;5.760;2023-06-04T06:56:19;3.13;;;1.65;;
69081;SDS011;69029;51.986;5.760;2023-06-04T06:58:44;5.97;;;1.80;;
69081;SDS011;69029;51.986;5.760;2023-06-04T07:01:10;4.20;;;1.65;;
69081;SDS011;69029;51.986;5.760;2023-06-04T07:03:36;3.47;;;1.50;;
69081;SDS011;69029;51.986;5.760;2023-06-04T07:06:04;4.03;;;1.50;;
69081;SDS011;69029;51.986;5.760;2023-06-04T07:08:30;3.40;;;1.40;;
69081;SDS011;69029;51.986;5.760;2023-06-04T07:10:57;2.80;;;1.23;;
69081;SDS011;69029;51.986;5.760;2023-06-04T07:13:23;1.98;;;1.30;;
69081;SDS011;69029;51.986;5.760;2023-06-04T07:15:48;5.13;;;1.38;;
69081;SDS011;69029;51.986;5.760;2023-06-04T07:18:14;3.65;;;1.15;;
69081;SDS011;69029;51.986;5.760;2023-06-04T07:20:40;3.53;;;1.10;;
69081;SDS011;69029;51.986;5.760;2023-06-04T07:23:06;3.28;;;1.10;;
69081;SDS011;69029;51.986;5.760;2023-06-04T07:25:32;2.75;;;1.30;;
69081;SDS011;69029;51.986;5.760;2023-06-04T07:27:58;2.17;;;0.95;;
69081;SDS011;69029;51.986;5.760;2023-06-04T07:30:24;4.30;;;1.20;;
69081;SDS011;69029;51.986;5.760;2023-06-04T07:32:50;2.58;;;1.10;;
69081;SDS011;69029;51.986;5.760;2023-06-04T07:35:16;3.33;;;1.05;;
69081;SDS011;69029;51.986;5.760;2023-06-04T07:37:42;4.40;;;1.40;;
69081;SDS011;69029;51.986;5.760;2023-06-04T07:40:10;4.10;;;1.20;;
69081;SDS011;69029;51.986;5.760;2023-06-04T07:42:36;4.22;;;1.17;;
69081;SDS011;69029;51.986;5.760;2023-06-04T07:45:02;3.83;;;1.13;;
69081;SDS011;69029;51.986;5.760;2023-06-04T07:47:28;7.70;;;1.23;;
69081;SDS011;69029;51.986;5.760;2023-06-04T07:49:54;1.63;;;1.10;;
69081;SDS011;69029;51.986;5.760;2023-06-04T07:52:19;2.67;;;1.00;;
69081;SDS011;69029;51.986;5.760;2023-06-04T07:54:45;1.55;;;0.98;;
69081;SDS011;69029;51.986;5.760;2023-06-04T07:57:11;3.30;;;1.13;;
69081;SDS011;69029;51.986;5.760;2023-06-04T07:59:39;3.42;;;1.10;;
69081;SDS011;69029;51.986;5.760;2023-06-04T08:02:05;3.28;;;1.10;;
69081;SDS011;69029;51.986;5.760;2023-06-04T08:04:30;2.55;;;1.40;;
69081;SDS011;69029;51.986;5.760;2023-06-04T08:06:56;5.78;;;1.10;;
69081;SDS011;69029;51.986;5.760;2023-06-04T08:09:22;2.08;;;0.93;;
69081;SDS011;69029;51.986;5.760;2023-06-04T08:11:48;3.85;;;1.10;;
69081;SDS011;69029;51.986;5.760;2023-06-04T08:14:14;4.10;;;0.98;;
69081;SDS011;69029;51.986;5.760;2023-06-04T08:16:40;3.05;;;1.00;;
69081;SDS011;69029;51.986;5.760;2023-06-04T08:19:06;2.65;;;1.23;;
69081;SDS011;69029;51.986;5.760;2023-06-04T08:21:33;1.60;;;1.00;;
69081;SDS011;69029;51.986;5.760;2023-06-04T08:23:59;3.78;;;1.08;;
69081;SDS011;69029;51.986;5.760;2023-06-04T08:26:25;3.05;;;1.13;;
69081;SDS011;69029;51.986;5.760;2023-06-04T08:28:55;2.33;;;0.98;;
69081;SDS011;69029;51.986;5.760;2023-06-04T08:31:21;2.55;;;1.30;;
69081;SDS011;69029;51.986;5.760;2023-06-04T08:33:46;3.83;;;1.00;;
69081;SDS011;69029;51.986;5.760;2023-06-04T08:36:12;5.03;;;1.10;;
69081;SDS011;69029;51.986;5.760;2023-06-04T08:38:39;2.30;;;0.93;;
69081;SDS011;69029;51.986;5.760;2023-06-04T08:41:09;2.80;;;0.93;;
69081;SDS011;69029;51.986;5.760;2023-06-04T08:43:40;3.80;;;1.30;;
69081;SDS011;69029;51.986;5.760;2023-06-04T08:46:09;2.53;;;1.10;;
69081;SDS011;69029;51.986;5.760;2023-06-04T08:48:37;6.88;;;1.10;;
69081;SDS011;69029;51.986;5.760;2023-06-04T08:51:05;1.70;;;0.90;;
69081;SDS011;69029;51.986;5.760;2023-06-04T08:53:33;2.25;;;1.00;;
69081;SDS011;69029;51.986;5.760;2023-06-04T08:55:59;1.98;;;0.88;;
69081;SDS011;69029;51.986;5.760;2023-06-04T08:58:25;2.00;;;1.05;;
69081;SDS011;69029;51.986;5.760;2023-06-04T09:00:53;7.22;;;1.25;;
69081;SDS011;69029;51.986;5.760;2023-06-04T09:03:21;1.30;;;0.90;;
69081;SDS011;69029;51.986;5.760;2023-06-04T09:05:49;1.92;;;0.90;;
69081;SDS011;69029;51.986;5.760;2023-06-04T09:08:17;6.70;;;1.10;;
69081;SDS011;69029;51.986;5.760;2023-06-04T09:10:44;2.28;;;1.00;;
69081;SDS011;69029;51.986;5.760;2023-06-04T09:13:11;0.98;;;0.70;;
69081;SDS011;69029;51.986;5.760;2023-06-04T09:15:38;1.42;;;0.80;;
69081;SDS011;69029;51.986;5.760;2023-06-04T09:18:03;2.50;;;0.90;;
69081;SDS011;69029;51.986;5.760;2023-06-04T09:20:31;1.33;;;0.85;;
69081;SDS011;69029;51.986;5.760;2023-06-04T09:22:58;2.30;;;1.10;;
69081;SDS011;69029;51.986;5.760;2023-06-04T09:25:25;1.90;;;1.00;;
69081;SDS011;69029;51.986;5.760;2023-06-04T09:27:52;3.03;;;0.88;;
69081;SDS011;69029;51.986;5.760;2023-06-04T09:30:20;1.60;;;0.85;;
69081;SDS011;69029;51.986;5.760;2023-06-04T09:32:49;1.60;;;0.80;;
69081;SDS011;69029;51.986;5.760;2023-06-04T09:35:16;2.45;;;1.00;;
69081;SDS011;69029;51.986;5.760;2023-06-04T09:37:51;1.00;;;0.80;;
69081;SDS011;69029;51.986;5.760;2023-06-04T09:40:18;2.40;;;0.90;;
69081;SDS011;69029;51.986;5.760;2023-06-04T09:42:47;1.30;;;0.90;;
69081;SDS011;69029;51.986;5.760;2023-06-04T09:45:31;2.33;;;0.70;;
69081;SDS011;69029;51.986;5.760;2023-06-04T09:47:59;4.28;;;0.90;;
69081;SDS011;69029;51.986;5.760;2023-06-04T09:50:26;1.80;;;0.80;;
69081;SDS011;69029;51.986;5.760;2023-06-04T09:52:56;1.05;;;0.70;;
69081;SDS011;69029;51.986;5.760;2023-06-04T09:55:23;1.48;;;0.80;;
69081;SDS011;69029;51.986;5.760;2023-06-04T09:57:49;1.63;;;0.98;;
69081;SDS011;69029;51.986;5.760;2023-06-04T10:00:16;1.83;;;0.80;;
69081;SDS011;69029;51.986;5.760;2023-06-04T10:02:43;6.07;;;1.00;;
69081;SDS011;69029;51.986;5.760;2023-06-04T10:05:11;6.78;;;0.93;;
69081;SDS011;69029;51.986;5.760;2023-06-04T10:07:39;3.22;;;0.80;;
69081;SDS011;69029;51.986;5.760;2023-06-04T10:10:15;1.80;;;0.70;;
69081;SDS011;69029;51.986;5.760;2023-06-04T10:12:43;2.58;;;0.77;;
69081;SDS011;69029;51.986;5.760;2023-06-04T10:15:12;3.65;;;1.00;;
69081;SDS011;69029;51.986;5.760;2023-06-04T10:17:39;1.58;;;0.80;;
69081;SDS011;69029;51.986;5.760;2023-06-04T10:20:09;0.80;;;0.75;;
69081;SDS011;69029;51.986;5.760;2023-06-04T10:22:38;1.90;;;0.70;;
69081;SDS011;69029;51.986;5.760;2023-06-04T10:25:04;2.72;;;0.70;;
69081;SDS011;69029;51.986;5.760;2023-06-04T10:27:31;4.05;;;0.70;;
69081;SDS011;69029;51.986;5.760;2023-06-04T10:29:57;1.05;;;0.85;;
69081;SDS011;69029;51.986;5.760;2023-06-04T10:32:26;3.00;;;0.80;;
69081;SDS011;69029;51.986;5.760;2023-06-04T10:34:53;3.05;;;1.10;;
69081;SDS011;69029;51.986;5.760;2023-06-04T10:37:19;1.88;;;0.80;;
69081;SDS011;69029;51.986;5.760;2023-06-04T10:39:51;2.53;;;1.00;;
69081;SDS011;69029;51.986;5.760;2023-06-04T10:42:18;1.77;;;0.90;;
69081;SDS011;69029;51.986;5.760;2023-06-04T10:44:46;1.30;;;0.85;;
69081;SDS011;69029;51.986;5.760;2023-06-04T10:47:25;1.00;;;0.90;;
69081;SDS011;69029;51.986;5.760;2023-06-04T10:49:52;1.13;;;0.77;;
69081;SDS011;69029;51.986;5.760;2023-06-04T10:52:19;1.13;;;0.70;;
69081;SDS011;69029;51.986;5.760;2023-06-04T10:54:45;4.18;;;0.90;;
69081;SDS011;69029;51.986;5.760;2023-06-04T10:57:17;7.18;;;0.90;;
69081;SDS011;69029;51.986;5.760;2023-06-04T10:59:53;5.47;;;0.90;;
69081;SDS011;69029;51.986;5.760;2023-06-04T11:02:22;1.40;;;0.88;;
69081;SDS011;69029;51.986;5.760;2023-06-04T11:07:44;2.08;;;0.90;;
69081;SDS011;69029;51.986;5.760;2023-06-04T11:10:11;2.63;;;0.90;;
69081;SDS011;69029;51.986;5.760;2023-06-04T11:12:41;2.20;;;0.70;;
69081;SDS011;69029;51.986;5.760;2023-06-04T11:15:08;1.75;;;0.70;;
69081;SDS011;69029;51.986;5.760;2023-06-04T11:17:34;0.80;;;0.80;;
69081;SDS011;69029;51.986;5.760;2023-06-04T11:20:00;4.82;;;0.80;;
69081;SDS011;69029;51.986;5.760;2023-06-04T11:22:26;1.95;;;0.75;;
69081;SDS011;69029;51.986;5.760;2023-06-04T11:24:58;2.17;;;0.70;;
69081;SDS011;69029;51.986;5.760;2023-06-04T11:27:24;2.85;;;1.00;;
69081;SDS011;69029;51.986;5.760;2023-06-04T11:29:51;3.28;;;1.25;;
69081;SDS011;69029;51.986;5.760;2023-06-04T11:32:23;1.15;;;0.60;;
69081;SDS011;69029;51.986;5.760;2023-06-04T11:34:49;1.27;;;0.80;;
69081;SDS011;69029;51.986;5.760;2023-06-04T11:37:15;3.15;;;0.80;;
69081;SDS011;69029;51.986;5.760;2023-06-04T11:39:40;1.40;;;0.70;;
69081;SDS011;69029;51.986;5.760;2023-06-04T11:42:09;1.27;;;0.90;;
69081;SDS011;69029;51.986;5.760;2023-06-04T11:44:35;2.55;;;0.60;;
69081;SDS011;69029;51.986;5.760;2023-06-04T11:47:04;1.33;;;0.80;;
69081;SDS011;69029;51.986;5.760;2023-06-04T11:49:33;1.97;;;0.83;;
69081;SDS011;69029;51.986;5.760;2023-06-04T11:52:00;2.95;;;0.80;;
69081;SDS011;69029;51.986;5.760;2023-06-04T11:54:27;2.28;;;0.80;;
69081;SDS011;69029;51.986;5.760;2023-06-04T11:56:53;4.97;;;0.80;;
69081;SDS011;69029;51.986;5.760;2023-06-04T11:59:18;1.50;;;0.90;;
69081;SDS011;69029;51.986;5.760;2023-06-04T12:01:45;1.20;;;1.00;;
69081;SDS011;69029;51.986;5.760;2023-06-04T12:04:18;1.15;;;0.80;;
69081;SDS011;69029;51.986;5.760;2023-06-04T12:06:56;2.78;;;0.70;;
69081;SDS011;69029;51.986;5.760;2023-06-04T12:09:24;19.23;;;1.25;;
69081;SDS011;69029;51.986;5.760;2023-06-04T12:12:01;1.50;;;0.80;;
69081;SDS011;69029;51.986;5.760;2023-06-04T12:14:28;4.95;;;0.85;;
69081;SDS011;69029;51.986;5.760;2023-06-04T12:16:57;4.50;;;0.80;;
69081;SDS011;69029;51.986;5.760;2023-06-04T12:19:24;13.32;;;1.20;;
69081;SDS011;69029;51.986;5.760;2023-06-04T12:22:01;3.58;;;1.13;;
69081;SDS011;69029;51.986;5.760;2023-06-04T12:24:28;3.15;;;0.85;;
69081;SDS011;69029;51.986;5.760;2023-06-04T12:27:27;1.83;;;0.82;;
69081;SDS011;69029;51.986;5.760;2023-06-04T12:29:57;0.90;;;0.75;;
69081;SDS011;69029;51.986;5.760;2023-06-04T12:32:34;3.25;;;0.98;;
69081;SDS011;69029;51.986;5.760;2023-06-04T12:35:01;1.00;;;0.88;;
69081;SDS011;69029;51.986;5.760;2023-06-04T12:37:26;2.08;;;1.08;;
69081;SDS011;69029;51.986;5.760;2023-06-04T12:39:53;1.08;;;0.85;;
69081;SDS011;69029;51.986;5.760;2023-06-04T12:42:19;0.93;;;0.70;;
69081;SDS011;69029;51.986;5.760;2023-06-04T12:44:45;2.28;;;0.90;;
69081;SDS011;69029;51.986;5.760;2023-06-04T12:47:11;3.88;;;0.77;;
69081;SDS011;69029;51.986;5.760;2023-06-04T12:49:37;1.27;;;0.80;;
69081;SDS011;69029;51.986;5.760;2023-06-04T12:52:03;1.15;;;0.80;;
69081;SDS011;69029;51.986;5.760;2023-06-04T12:54:29;3.72;;;1.05;;
69081;SDS011;69029;51.986;5.760;2023-06-04T12:56:55;2.05;;;0.88;;
69081;SDS011;69029;51.986;5.760;2023-06-04T12:59:22;1.27;;;0.90;;
69081;SDS011;69029;51.986;5.760;2023-06-04T13:01:51;2.28;;;1.00;;
69081;SDS011;69029;51.986;5.760;2023-06-04T13:04:17;3.78;;;1.00;;
69081;SDS011;69029;51.986;5.760;2023-06-04T13:06:43;1.70;;;0.90;;
69081;SDS011;69029;51.986;5.760;2023-06-04T13:09:10;2.55;;;0.95;;
69081;SDS011;69029;51.986;5.760;2023-06-04T13:11:37;1.17;;;0.80;;
69081;SDS011;69029;51.986;5.760;2023-06-04T13:14:04;1.13;;;0.73;;
69081;SDS011;69029;51.986;5.760;2023-06-04T13:16:30;1.30;;;0.90;;
69081;SDS011;69029;51.986;5.760;2023-06-04T13:18:55;3.15;;;1.00;;
69081;SDS011;69029;51.986;5.760;2023-06-04T13:21:21;1.33;;;0.80;;
69081;SDS011;69029;51.986;5.760;2023-06-04T13:23:47;4.60;;;1.00;;
69081;SDS011;69029;51.986;5.760;2023-06-04T13:26:14;1.40;;;0.98;;
69081;SDS011;69029;51.986;5.760;2023-06-04T13:28:43;1.50;;;0.80;;
69081;SDS011;69029;51.986;5.760;2023-06-04T13:31:09;2.28;;;0.70;;
69081;SDS011;69029;51.986;5.760;2023-06-04T13:33:34;3.90;;;0.93;;
69081;SDS011;69029;51.986;5.760;2023-06-04T13:36:02;1.80;;;1.10;;
69081;SDS011;69029;51.986;5.760;2023-06-04T13:38:28;1.42;;;0.90;;
69081;SDS011;69029;51.986;5.760;2023-06-04T13:40:54;1.40;;;0.90;;
69081;SDS011;69029;51.986;5.760;2023-06-04T13:43:20;1.92;;;1.00;;
69081;SDS011;69029;51.986;5.760;2023-06-04T13:45:45;1.00;;;0.85;;
69081;SDS011;69029;51.986;5.760;2023-06-04T13:48:11;1.67;;;0.95;;
69081;SDS011;69029;51.986;5.760;2023-06-04T13:50:37;1.42;;;1.10;;
69081;SDS011;69029;51.986;5.760;2023-06-04T13:53:03;1.95;;;0.93;;
69081;SDS011;69029;51.986;5.760;2023-06-04T13:55:30;2.80;;;1.00;;
69081;SDS011;69029;51.986;5.760;2023-06-04T13:57:59;1.13;;;1.02;;
69081;SDS011;69029;51.986;5.760;2023-06-04T14:00:24;3.33;;;1.13;;
69081;SDS011;69029;51.986;5.760;2023-06-04T14:02:50;3.22;;;1.20;;
69081;SDS011;69029;51.986;5.760;2023-06-04T14:05:20;4.45;;;1.08;;
69081;SDS011;69029;51.986;5.760;2023-06-04T14:07:46;3.13;;;0.93;;
69081;SDS011;69029;51.986;5.760;2023-06-04T14:10:12;4.63;;;1.00;;
69081;SDS011;69029;51.986;5.760;2023-06-04T14:12:38;2.13;;;0.90;;
69081;SDS011;69029;51.986;5.760;2023-06-04T14:15:08;1.92;;;0.85;;
69081;SDS011;69029;51.986;5.760;2023-06-04T14:17:37;2.17;;;0.95;;
69081;SDS011;69029;51.986;5.760;2023-06-04T14:20:04;2.30;;;0.93;;
69081;SDS011;69029;51.986;5.760;2023-06-04T14:22:35;1.52;;;0.88;;
69081;SDS011;69029;51.986;5.760;2023-06-04T14:25:07;2.78;;;1.10;;
69081;SDS011;69029;51.986;5.760;2023-06-04T14:27:34;2.78;;;1.00;;
69081;SDS011;69029;51.986;5.760;2023-06-04T14:30:01;3.38;;;1.00;;
69081;SDS011;69029;51.986;5.760;2023-06-04T14:32:28;1.67;;;1.10;;
69081;SDS011;69029;51.986;5.760;2023-06-04T14:34:54;4.13;;;1.05;;
69081;SDS011;69029;51.986;5.760;2023-06-04T14:37:20;4.13;;;1.00;;
69081;SDS011;69029;51.986;5.760;2023-06-04T14:39:46;1.70;;;0.98;;
69081;SDS011;69029;51.986;5.760;2023-06-04T14:42:13;1.35;;;1.00;;
69081;SDS011;69029;51.986;5.760;2023-06-04T14:44:40;2.33;;;1.00;;
69081;SDS011;69029;51.986;5.760;2023-06-04T14:47:05;3.58;;;1.00;;
69081;SDS011;69029;51.986;5.760;2023-06-04T14:49:31;3.35;;;1.10;;
69081;SDS011;69029;51.986;5.760;2023-06-04T14:51:57;2.08;;;0.95;;
69081;SDS011;69029;51.986;5.760;2023-06-04T14:54:23;2.17;;;0.82;;
69081;SDS011;69029;51.986;5.760;2023-06-04T14:56:49;1.55;;;0.98;;